sensor_id;sensor_type;location;lat;lon;timestamp;P1;durP1;ratioP1;P2;durP2;ratioP2
47599;SDS011;33323;52.124;6.018;2023-05-20T00:01:15;8.55;;;3.97;;
47599;SDS011;33323;52.124;6.018;2023-05-20T00:03:42;5.82;;;3.13;;
47599;SDS011;33323;52.124;6.018;2023-05-20T00:06:09;5.53;;;2.60;;
47599;SDS011;33323;52.124;6.018;2023-05-20T00:08:36;6.75;;;3.22;;
47599;SDS011;33323;52.124;6.018;2023-05-20T00:11:03;8.65;;;3.30;;
47599;SDS011;33323;52.124;6.018;2023-05-20T00:13:30;8.07;;;3.15;;
47599;SDS011;33323;52.124;6.018;2023-05-20T00:15:57;9.05;;;3.13;;
47599;SDS011;33323;52.124;6.018;2023-05-20T00:18:24;9.35;;;3.03;;
47599;SDS011;33323;52.124;6.018;2023-05-20T00:20:51;7.10;;;2.47;;
47599;SDS011;33323;52.124;6.018;2023-05-20T00:23:19;5.38;;;3.20;;
47599;SDS011;33323;52.124;6.018;2023-05-20T00:25:46;8.85;;;3.00;;
47599;SDS011;33323;52.124;6.018;2023-05-20T00:28:13;9.00;;;3.33;;
47599;SDS011;33323;52.124;6.018;2023-05-20T00:30:40;10.45;;;3.75;;
47599;SDS011;33323;52.124;6.018;2023-05-20T00:33:08;7.00;;;2.97;;
47599;SDS011;33323;52.124;6.018;2023-05-20T00:35:35;7.40;;;2.90;;
47599;SDS011;33323;52.124;6.018;2023-05-20T00:38:02;9.02;;;3.60;;
47599;SDS011;33323;52.124;6.018;2023-05-20T00:40:29;9.68;;;3.50;;
47599;SDS011;33323;52.124;6.018;2023-05-20T00:42:57;8.20;;;3.60;;
47599;SDS011;33323;52.124;6.018;2023-05-20T00:45:24;10.93;;;3.83;;
47599;SDS011;33323;52.124;6.018;2023-05-20T00:47:51;5.18;;;3.05;;
47599;SDS011;33323;52.124;6.018;2023-05-20T00:50:18;4.72;;;2.78;;
47599;SDS011;33323;52.124;6.018;2023-05-20T00:52:46;8.93;;;2.75;;
47599;SDS011;33323;52.124;6.018;2023-05-20T00:55:14;10.45;;;3.80;;
47599;SDS011;33323;52.124;6.018;2023-05-20T00:57:41;8.25;;;3.15;;
47599;SDS011;33323;52.124;6.018;2023-05-20T01:00:08;6.70;;;2.83;;
47599;SDS011;33323;52.124;6.018;2023-05-20T01:02:36;6.55;;;2.70;;
47599;SDS011;33323;52.124;6.018;2023-05-20T01:05:04;7.82;;;3.00;;
47599;SDS011;33323;52.124;6.018;2023-05-20T01:07:32;7.60;;;3.72;;
47599;SDS011;33323;52.124;6.018;2023-05-20T01:09:59;6.90;;;3.42;;
47599;SDS011;33323;52.124;6.018;2023-05-20T01:12:27;9.55;;;4.57;;
47599;SDS011;33323;52.124;6.018;2023-05-20T01:15:09;7.43;;;4.18;;
47599;SDS011;33323;52.124;6.018;2023-05-20T01:17:39;6.93;;;3.22;;
47599;SDS011;33323;52.124;6.018;2023-05-20T01:20:11;8.80;;;3.22;;
47599;SDS011;33323;52.124;6.018;2023-05-20T01:23:13;3.35;;;2.55;;
47599;SDS011;33323;52.124;6.018;2023-05-20T01:25:33;6.43;;;3.72;;
47599;SDS011;33323;52.124;6.018;2023-05-20T01:28:00;11.55;;;4.97;;
47599;SDS011;33323;52.124;6.018;2023-05-20T01:30:29;5.85;;;2.72;;
47599;SDS011;33323;52.124;6.018;2023-05-20T01:33:06;5.82;;;2.60;;
47599;SDS011;33323;52.124;6.018;2023-05-20T01:35:37;12.38;;;3.75;;
47599;SDS011;33323;52.124;6.018;2023-05-20T01:38:05;7.22;;;3.63;;
47599;SDS011;33323;52.124;6.018;2023-05-20T01:40:33;7.50;;;4.00;;
47599;SDS011;33323;52.124;6.018;2023-05-20T01:43:01;6.65;;;3.78;;
47599;SDS011;33323;52.124;6.018;2023-05-20T01:45:29;3.55;;;2.97;;
47599;SDS011;33323;52.124;6.018;2023-05-20T01:47:58;11.20;;;4.40;;
47599;SDS011;33323;52.124;6.018;2023-05-20T01:50:27;9.55;;;3.33;;
47599;SDS011;33323;52.124;6.018;2023-05-20T01:52:54;8.45;;;3.25;;
47599;SDS011;33323;52.124;6.018;2023-05-20T01:55:21;8.55;;;2.92;;
47599;SDS011;33323;52.124;6.018;2023-05-20T01:57:48;4.68;;;3.15;;
47599;SDS011;33323;52.124;6.018;2023-05-20T02:00:15;5.03;;;2.75;;
47599;SDS011;33323;52.124;6.018;2023-05-20T02:02:43;5.90;;;3.28;;
47599;SDS011;33323;52.124;6.018;2023-05-20T02:05:11;5.32;;;2.92;;
47599;SDS011;33323;52.124;6.018;2023-05-20T02:07:41;8.35;;;2.55;;
47599;SDS011;33323;52.124;6.018;2023-05-20T02:10:08;5.68;;;2.85;;
47599;SDS011;33323;52.124;6.018;2023-05-20T02:12:36;10.60;;;3.92;;
47599;SDS011;33323;52.124;6.018;2023-05-20T02:15:03;6.25;;;3.03;;
47599;SDS011;33323;52.124;6.018;2023-05-20T02:17:31;9.07;;;2.85;;
47599;SDS011;33323;52.124;6.018;2023-05-20T02:19:58;5.30;;;2.70;;
47599;SDS011;33323;52.124;6.018;2023-05-20T02:22:25;7.13;;;3.55;;
47599;SDS011;33323;52.124;6.018;2023-05-20T02:24:52;6.65;;;2.88;;
47599;SDS011;33323;52.124;6.018;2023-05-20T02:27:19;12.18;;;3.40;;
47599;SDS011;33323;52.124;6.018;2023-05-20T02:29:46;5.35;;;2.88;;
47599;SDS011;33323;52.124;6.018;2023-05-20T02:32:13;6.72;;;3.95;;
47599;SDS011;33323;52.124;6.018;2023-05-20T02:34:40;4.97;;;2.35;;
47599;SDS011;33323;52.124;6.018;2023-05-20T02:37:07;7.13;;;2.80;;
47599;SDS011;33323;52.124;6.018;2023-05-20T02:39:35;6.30;;;2.72;;
47599;SDS011;33323;52.124;6.018;2023-05-20T02:42:02;9.20;;;3.10;;
47599;SDS011;33323;52.124;6.018;2023-05-20T02:44:30;7.50;;;2.58;;
47599;SDS011;33323;52.124;6.018;2023-05-20T02:46:57;8.35;;;3.13;;
47599;SDS011;33323;52.124;6.018;2023-05-20T02:49:24;15.00;;;3.95;;
47599;SDS011;33323;52.124;6.018;2023-05-20T02:51:51;10.68;;;3.08;;
47599;SDS011;33323;52.124;6.018;2023-05-20T02:54:18;5.43;;;3.17;;
47599;SDS011;33323;52.124;6.018;2023-05-20T02:56:45;9.95;;;3.47;;
47599;SDS011;33323;52.124;6.018;2023-05-20T02:59:12;5.10;;;3.17;;
47599;SDS011;33323;52.124;6.018;2023-05-20T03:01:39;5.82;;;3.00;;
47599;SDS011;33323;52.124;6.018;2023-05-20T03:04:07;6.38;;;2.95;;
47599;SDS011;33323;52.124;6.018;2023-05-20T03:06:36;5.70;;;3.00;;
47599;SDS011;33323;52.124;6.018;2023-05-20T03:09:03;5.47;;;2.92;;
47599;SDS011;33323;52.124;6.018;2023-05-20T03:11:31;5.78;;;2.97;;
47599;SDS011;33323;52.124;6.018;2023-05-20T03:13:58;9.63;;;3.30;;
47599;SDS011;33323;52.124;6.018;2023-05-20T03:16:25;8.50;;;3.60;;
47599;SDS011;33323;52.124;6.018;2023-05-20T03:18:53;6.63;;;2.67;;
47599;SDS011;33323;52.124;6.018;2023-05-20T03:21:20;7.35;;;3.33;;
47599;SDS011;33323;52.124;6.018;2023-05-20T03:23:49;16.10;;;4.07;;
47599;SDS011;33323;52.124;6.018;2023-05-20T03:26:17;11.35;;;3.67;;
47599;SDS011;33323;52.124;6.018;2023-05-20T03:28:44;7.05;;;3.35;;
47599;SDS011;33323;52.124;6.018;2023-05-20T03:31:11;5.35;;;2.90;;
47599;SDS011;33323;52.124;6.018;2023-05-20T03:33:38;8.25;;;3.72;;
47599;SDS011;33323;52.124;6.018;2023-05-20T03:36:06;10.02;;;3.50;;
47599;SDS011;33323;52.124;6.018;2023-05-20T03:38:33;8.73;;;3.33;;
47599;SDS011;33323;52.124;6.018;2023-05-20T03:41:00;8.23;;;3.22;;
47599;SDS011;33323;52.124;6.018;2023-05-20T03:43:27;6.18;;;3.10;;
47599;SDS011;33323;52.124;6.018;2023-05-20T03:45:55;10.00;;;4.53;;
47599;SDS011;33323;52.124;6.018;2023-05-20T03:48:21;12.82;;;4.22;;
47599;SDS011;33323;52.124;6.018;2023-05-20T03:50:49;11.27;;;3.92;;
47599;SDS011;33323;52.124;6.018;2023-05-20T03:53:16;9.00;;;3.70;;
47599;SDS011;33323;52.124;6.018;2023-05-20T03:55:44;5.10;;;3.38;;
47599;SDS011;33323;52.124;6.018;2023-05-20T03:58:12;6.95;;;3.90;;
47599;SDS011;33323;52.124;6.018;2023-05-20T04:00:40;6.43;;;3.70;;
47599;SDS011;33323;52.124;6.018;2023-05-20T04:03:07;6.50;;;3.50;;
47599;SDS011;33323;52.124;6.018;2023-05-20T04:05:35;7.72;;;3.25;;
47599;SDS011;33323;52.124;6.018;2023-05-20T04:08:09;9.57;;;3.95;;
47599;SDS011;33323;52.124;6.018;2023-05-20T04:10:41;7.50;;;3.60;;
47599;SDS011;33323;52.124;6.018;2023-05-20T04:13:10;7.07;;;3.83;;
47599;SDS011;33323;52.124;6.018;2023-05-20T04:15:38;7.47;;;4.03;;
47599;SDS011;33323;52.124;6.018;2023-05-20T04:18:07;6.47;;;3.40;;
47599;SDS011;33323;52.124;6.018;2023-05-20T04:20:34;6.88;;;4.35;;
47599;SDS011;33323;52.124;6.018;2023-05-20T04:23:01;4.55;;;3.00;;
47599;SDS011;33323;52.124;6.018;2023-05-20T04:25:28;8.68;;;3.47;;
47599;SDS011;33323;52.124;6.018;2023-05-20T04:27:55;8.23;;;3.72;;
47599;SDS011;33323;52.124;6.018;2023-05-20T04:30:23;9.70;;;3.42;;
47599;SDS011;33323;52.124;6.018;2023-05-20T04:32:50;6.82;;;3.15;;
47599;SDS011;33323;52.124;6.018;2023-05-20T04:35:18;5.22;;;3.13;;
47599;SDS011;33323;52.124;6.018;2023-05-20T04:37:47;8.07;;;3.55;;
47599;SDS011;33323;52.124;6.018;2023-05-20T04:40:14;5.03;;;3.20;;
47599;SDS011;33323;52.124;6.018;2023-05-20T04:42:42;6.30;;;3.38;;
47599;SDS011;33323;52.124;6.018;2023-05-20T04:45:10;8.60;;;4.45;;
47599;SDS011;33323;52.124;6.018;2023-05-20T04:47:40;5.82;;;3.83;;
47599;SDS011;33323;52.124;6.018;2023-05-20T04:50:07;5.47;;;3.63;;
47599;SDS011;33323;52.124;6.018;2023-05-20T04:52:39;5.93;;;3.47;;
47599;SDS011;33323;52.124;6.018;2023-05-20T04:55:09;7.22;;;3.70;;
47599;SDS011;33323;52.124;6.018;2023-05-20T04:57:37;5.68;;;3.03;;
47599;SDS011;33323;52.124;6.018;2023-05-20T05:00:09;15.52;;;4.10;;
47599;SDS011;33323;52.124;6.018;2023-05-20T05:02:38;7.65;;;3.63;;
47599;SDS011;33323;52.124;6.018;2023-05-20T05:05:06;8.68;;;3.95;;
47599;SDS011;33323;52.124;6.018;2023-05-20T05:07:33;7.20;;;4.22;;
47599;SDS011;33323;52.124;6.018;2023-05-20T05:10:01;10.30;;;6.75;;
47599;SDS011;33323;52.124;6.018;2023-05-20T05:12:29;7.32;;;4.38;;
47599;SDS011;33323;52.124;6.018;2023-05-20T05:14:57;13.82;;;7.25;;
47599;SDS011;33323;52.124;6.018;2023-05-20T05:17:25;19.83;;;9.95;;
47599;SDS011;33323;52.124;6.018;2023-05-20T05:19:55;8.32;;;5.30;;
47599;SDS011;33323;52.124;6.018;2023-05-20T05:22:23;8.02;;;4.68;;
47599;SDS011;33323;52.124;6.018;2023-05-20T05:24:50;11.10;;;4.10;;
47599;SDS011;33323;52.124;6.018;2023-05-20T05:27:17;10.52;;;5.53;;
47599;SDS011;33323;52.124;6.018;2023-05-20T05:29:44;5.43;;;3.78;;
47599;SDS011;33323;52.124;6.018;2023-05-20T05:32:11;6.78;;;3.08;;
47599;SDS011;33323;52.124;6.018;2023-05-20T05:34:38;14.43;;;4.10;;
47599;SDS011;33323;52.124;6.018;2023-05-20T05:37:06;9.30;;;3.53;;
47599;SDS011;33323;52.124;6.018;2023-05-20T05:39:33;5.18;;;3.35;;
47599;SDS011;33323;52.124;6.018;2023-05-20T05:42:03;7.13;;;3.17;;
47599;SDS011;33323;52.124;6.018;2023-05-20T05:44:32;4.68;;;2.40;;
47599;SDS011;33323;52.124;6.018;2023-05-20T05:46:59;8.32;;;3.15;;
47599;SDS011;33323;52.124;6.018;2023-05-20T05:49:26;4.50;;;2.50;;
47599;SDS011;33323;52.124;6.018;2023-05-20T05:51:54;4.32;;;2.30;;
47599;SDS011;33323;52.124;6.018;2023-05-20T05:54:22;5.53;;;1.95;;
47599;SDS011;33323;52.124;6.018;2023-05-20T05:56:50;3.63;;;1.92;;
47599;SDS011;33323;52.124;6.018;2023-05-20T05:59:17;8.43;;;2.20;;
47599;SDS011;33323;52.124;6.018;2023-05-20T06:01:45;4.28;;;1.90;;
47599;SDS011;33323;52.124;6.018;2023-05-20T06:04:13;4.63;;;1.88;;
47599;SDS011;33323;52.124;6.018;2023-05-20T06:06:40;5.05;;;2.97;;
47599;SDS011;33323;52.124;6.018;2023-05-20T06:09:07;5.10;;;1.90;;
47599;SDS011;33323;52.124;6.018;2023-05-20T06:11:35;7.13;;;2.33;;
47599;SDS011;33323;52.124;6.018;2023-05-20T06:14:02;4.13;;;1.80;;
47599;SDS011;33323;52.124;6.018;2023-05-20T06:16:29;7.38;;;2.00;;
47599;SDS011;33323;52.124;6.018;2023-05-20T06:18:58;5.35;;;2.42;;
47599;SDS011;33323;52.124;6.018;2023-05-20T06:21:30;2.85;;;1.70;;
47599;SDS011;33323;52.124;6.018;2023-05-20T06:23:58;5.47;;;1.73;;
47599;SDS011;33323;52.124;6.018;2023-05-20T06:26:25;4.88;;;2.30;;
47599;SDS011;33323;52.124;6.018;2023-05-20T06:28:52;5.28;;;2.13;;
47599;SDS011;33323;52.124;6.018;2023-05-20T06:31:20;3.17;;;1.70;;
47599;SDS011;33323;52.124;6.018;2023-05-20T06:33:49;5.32;;;2.08;;
47599;SDS011;33323;52.124;6.018;2023-05-20T06:36:16;4.38;;;1.48;;
47599;SDS011;33323;52.124;6.018;2023-05-20T06:38:43;4.75;;;1.98;;
47599;SDS011;33323;52.124;6.018;2023-05-20T06:41:14;2.38;;;1.50;;
47599;SDS011;33323;52.124;6.018;2023-05-20T06:43:41;3.78;;;1.95;;
47599;SDS011;33323;52.124;6.018;2023-05-20T06:46:35;4.28;;;1.65;;
47599;SDS011;33323;52.124;6.018;2023-05-20T06:49:04;7.90;;;1.40;;
47599;SDS011;33323;52.124;6.018;2023-05-20T06:51:32;2.10;;;1.60;;
47599;SDS011;33323;52.124;6.018;2023-05-20T06:53:59;5.85;;;1.90;;
47599;SDS011;33323;52.124;6.018;2023-05-20T06:56:27;4.03;;;1.70;;
47599;SDS011;33323;52.124;6.018;2023-05-20T06:58:54;2.53;;;1.73;;
47599;SDS011;33323;52.124;6.018;2023-05-20T07:01:21;4.03;;;1.70;;
47599;SDS011;33323;52.124;6.018;2023-05-20T07:03:49;5.72;;;1.88;;
47599;SDS011;33323;52.124;6.018;2023-05-20T07:06:17;4.85;;;2.00;;
47599;SDS011;33323;52.124;6.018;2023-05-20T07:08:44;3.78;;;1.67;;
47599;SDS011;33323;52.124;6.018;2023-05-20T07:11:12;7.88;;;1.50;;
47599;SDS011;33323;52.124;6.018;2023-05-20T07:13:39;3.58;;;2.15;;
47599;SDS011;33323;52.124;6.018;2023-05-20T07:16:06;3.22;;;1.20;;
47599;SDS011;33323;52.124;6.018;2023-05-20T07:18:36;4.20;;;1.50;;
47599;SDS011;33323;52.124;6.018;2023-05-20T07:21:03;4.55;;;1.67;;
47599;SDS011;33323;52.124;6.018;2023-05-20T07:23:42;5.15;;;1.70;;
47599;SDS011;33323;52.124;6.018;2023-05-20T07:26:09;3.05;;;1.70;;
47599;SDS011;33323;52.124;6.018;2023-05-20T07:28:37;9.02;;;1.92;;
47599;SDS011;33323;52.124;6.018;2023-05-20T07:31:04;5.38;;;2.10;;
47599;SDS011;33323;52.124;6.018;2023-05-20T07:33:38;5.22;;;1.67;;
47599;SDS011;33323;52.124;6.018;2023-05-20T07:36:05;4.72;;;1.90;;
47599;SDS011;33323;52.124;6.018;2023-05-20T07:38:37;2.47;;;1.58;;
47599;SDS011;33323;52.124;6.018;2023-05-20T07:41:07;5.72;;;1.83;;
47599;SDS011;33323;52.124;6.018;2023-05-20T07:43:34;3.50;;;1.42;;
47599;SDS011;33323;52.124;6.018;2023-05-20T07:46:01;5.50;;;1.70;;
47599;SDS011;33323;52.124;6.018;2023-05-20T07:48:29;2.60;;;2.10;;
47599;SDS011;33323;52.124;6.018;2023-05-20T07:50:56;2.42;;;1.70;;
47599;SDS011;33323;52.124;6.018;2023-05-20T07:53:25;6.32;;;2.60;;
47599;SDS011;33323;52.124;6.018;2023-05-20T07:55:53;4.20;;;1.75;;
47599;SDS011;33323;52.124;6.018;2023-05-20T07:58:23;5.40;;;2.08;;
47599;SDS011;33323;52.124;6.018;2023-05-20T08:00:50;16.00;;;1.90;;
47599;SDS011;33323;52.124;6.018;2023-05-20T08:03:17;5.57;;;2.30;;
47599;SDS011;33323;52.124;6.018;2023-05-20T08:05:52;4.32;;;1.50;;
47599;SDS011;33323;52.124;6.018;2023-05-20T08:08:19;5.65;;;1.92;;
47599;SDS011;33323;52.124;6.018;2023-05-20T08:10:57;7.70;;;2.30;;
47599;SDS011;33323;52.124;6.018;2023-05-20T08:13:25;2.63;;;1.70;;
47599;SDS011;33323;52.124;6.018;2023-05-20T08:15:53;6.15;;;2.67;;
47599;SDS011;33323;52.124;6.018;2023-05-20T08:18:20;5.72;;;1.80;;
47599;SDS011;33323;52.124;6.018;2023-05-20T08:20:48;3.03;;;2.35;;
47599;SDS011;33323;52.124;6.018;2023-05-20T08:23:15;5.57;;;2.25;;
47599;SDS011;33323;52.124;6.018;2023-05-20T08:25:42;3.08;;;1.98;;
47599;SDS011;33323;52.124;6.018;2023-05-20T08:28:12;4.70;;;1.63;;
47599;SDS011;33323;52.124;6.018;2023-05-20T08:30:40;5.43;;;1.77;;
47599;SDS011;33323;52.124;6.018;2023-05-20T08:33:07;2.20;;;1.40;;
47599;SDS011;33323;52.124;6.018;2023-05-20T08:35:34;5.32;;;1.70;;
47599;SDS011;33323;52.124;6.018;2023-05-20T08:38:05;4.53;;;1.42;;
47599;SDS011;33323;52.124;6.018;2023-05-20T08:40:36;2.92;;;1.52;;
47599;SDS011;33323;52.124;6.018;2023-05-20T08:43:03;3.53;;;1.80;;
47599;SDS011;33323;52.124;6.018;2023-05-20T08:45:31;5.72;;;2.33;;
47599;SDS011;33323;52.124;6.018;2023-05-20T08:48:05;2.65;;;2.28;;
47599;SDS011;33323;52.124;6.018;2023-05-20T08:50:33;4.95;;;1.30;;
47599;SDS011;33323;52.124;6.018;2023-05-20T08:53:00;3.20;;;1.30;;
47599;SDS011;33323;52.124;6.018;2023-05-20T08:55:29;3.90;;;1.33;;
47599;SDS011;33323;52.124;6.018;2023-05-20T08:58:09;2.95;;;1.58;;
47599;SDS011;33323;52.124;6.018;2023-05-20T09:00:36;5.82;;;1.77;;
47599;SDS011;33323;52.124;6.018;2023-05-20T09:03:03;5.20;;;1.45;;
47599;SDS011;33323;52.124;6.018;2023-05-20T09:05:30;1.80;;;1.38;;
47599;SDS011;33323;52.124;6.018;2023-05-20T09:08:08;3.78;;;1.52;;
47599;SDS011;33323;52.124;6.018;2023-05-20T09:10:37;2.75;;;1.38;;
47599;SDS011;33323;52.124;6.018;2023-05-20T09:13:07;2.65;;;1.27;;
47599;SDS011;33323;52.124;6.018;2023-05-20T09:15:35;2.63;;;1.50;;
47599;SDS011;33323;52.124;6.018;2023-05-20T09:18:05;6.30;;;2.67;;
47599;SDS011;33323;52.124;6.018;2023-05-20T09:20:34;1.92;;;1.50;;
47599;SDS011;33323;52.124;6.018;2023-05-20T09:23:06;6.10;;;3.17;;
47599;SDS011;33323;52.124;6.018;2023-05-20T09:25:35;5.88;;;1.63;;
47599;SDS011;33323;52.124;6.018;2023-05-20T09:28:03;4.53;;;2.72;;
47599;SDS011;33323;52.124;6.018;2023-05-20T09:30:32;7.45;;;1.25;;
47599;SDS011;33323;52.124;6.018;2023-05-20T09:33:00;5.45;;;1.98;;
47599;SDS011;33323;52.124;6.018;2023-05-20T09:35:33;7.43;;;1.65;;
47599;SDS011;33323;52.124;6.018;2023-05-20T09:38:04;5.07;;;1.33;;
47599;SDS011;33323;52.124;6.018;2023-05-20T09:40:35;4.90;;;1.77;;
47599;SDS011;33323;52.124;6.018;2023-05-20T09:43:05;2.28;;;1.17;;
47599;SDS011;33323;52.124;6.018;2023-05-20T09:45:33;4.05;;;1.65;;
47599;SDS011;33323;52.124;6.018;2023-05-20T09:48:01;5.90;;;2.40;;
47599;SDS011;33323;52.124;6.018;2023-05-20T09:50:31;2.10;;;1.40;;
47599;SDS011;33323;52.124;6.018;2023-05-20T09:53:00;5.70;;;1.75;;
47599;SDS011;33323;52.124;6.018;2023-05-20T09:55:29;2.10;;;1.45;;
47599;SDS011;33323;52.124;6.018;2023-05-20T09:57:57;3.08;;;1.45;;
47599;SDS011;33323;52.124;6.018;2023-05-20T10:00:27;3.63;;;2.05;;
47599;SDS011;33323;52.124;6.018;2023-05-20T10:02:55;7.40;;;1.40;;
47599;SDS011;33323;52.124;6.018;2023-05-20T10:05:25;3.38;;;1.60;;
47599;SDS011;33323;52.124;6.018;2023-05-20T10:19:25;4.13;;;1.48;;
47599;SDS011;33323;52.124;6.018;2023-05-20T10:21:58;6.88;;;1.45;;
47599;SDS011;33323;52.124;6.018;2023-05-20T10:24:40;3.40;;;1.77;;
47599;SDS011;33323;52.124;6.018;2023-05-20T10:27:10;7.88;;;1.50;;
47599;SDS011;33323;52.124;6.018;2023-05-20T10:32:29;2.13;;;1.08;;
47599;SDS011;33323;52.124;6.018;2023-05-20T10:37:41;4.20;;;1.42;;
47599;SDS011;33323;52.124;6.018;2023-05-20T10:40:11;2.35;;;1.45;;
47599;SDS011;33323;52.124;6.018;2023-05-20T10:42:41;2.83;;;1.52;;
47599;SDS011;33323;52.124;6.018;2023-05-20T10:45:08;2.65;;;1.30;;
47599;SDS011;33323;52.124;6.018;2023-05-20T10:47:40;3.00;;;1.20;;
47599;SDS011;33323;52.124;6.018;2023-05-20T10:50:34;2.55;;;1.70;;
47599;SDS011;33323;52.124;6.018;2023-05-20T10:53:06;1.38;;;1.00;;
47599;SDS011;33323;52.124;6.018;2023-05-20T10:55:57;4.07;;;1.08;;
47599;SDS011;33323;52.124;6.018;2023-05-20T10:58:24;6.22;;;1.33;;
47599;SDS011;33323;52.124;6.018;2023-05-20T11:00:52;1.60;;;0.90;;
47599;SDS011;33323;52.124;6.018;2023-05-20T11:03:21;6.60;;;1.35;;
47599;SDS011;33323;52.124;6.018;2023-05-20T11:05:49;10.55;;;0.93;;
47599;SDS011;33323;52.124;6.018;2023-05-20T11:08:17;4.80;;;0.98;;
47599;SDS011;33323;52.124;6.018;2023-05-20T11:10:57;8.35;;;1.20;;
47599;SDS011;33323;52.124;6.018;2023-05-20T11:13:25;1.83;;;0.90;;
47599;SDS011;33323;52.124;6.018;2023-05-20T11:15:52;4.18;;;1.00;;
47599;SDS011;33323;52.124;6.018;2023-05-20T11:18:20;1.83;;;0.80;;
47599;SDS011;33323;52.124;6.018;2023-05-20T11:20:47;3.05;;;0.90;;
47599;SDS011;33323;52.124;6.018;2023-05-20T11:23:14;6.15;;;1.05;;
47599;SDS011;33323;52.124;6.018;2023-05-20T11:25:41;3.30;;;1.30;;
47599;SDS011;33323;52.124;6.018;2023-05-20T11:28:12;2.00;;;1.30;;
47599;SDS011;33323;52.124;6.018;2023-05-20T11:30:41;2.30;;;0.90;;
47599;SDS011;33323;52.124;6.018;2023-05-20T11:33:10;3.42;;;1.10;;
47599;SDS011;33323;52.124;6.018;2023-05-20T11:35:43;2.28;;;1.17;;
47599;SDS011;33323;52.124;6.018;2023-05-20T11:38:12;4.55;;;1.38;;
47599;SDS011;33323;52.124;6.018;2023-05-20T11:40:44;1.90;;;1.10;;
47599;SDS011;33323;52.124;6.018;2023-05-20T11:43:17;6.13;;;1.30;;
47599;SDS011;33323;52.124;6.018;2023-05-20T11:45:46;1.45;;;0.90;;
47599;SDS011;33323;52.124;6.018;2023-05-20T11:48:18;3.20;;;1.40;;
47599;SDS011;33323;52.124;6.018;2023-05-20T11:50:47;1.30;;;0.90;;
47599;SDS011;33323;52.124;6.018;2023-05-20T11:53:17;3.42;;;1.27;;
47599;SDS011;33323;52.124;6.018;2023-05-20T11:55:48;7.25;;;1.40;;
47599;SDS011;33323;52.124;6.018;2023-05-20T11:58:22;3.35;;;1.48;;
47599;SDS011;33323;52.124;6.018;2023-05-20T12:00:51;2.65;;;0.90;;
47599;SDS011;33323;52.124;6.018;2023-05-20T12:03:34;2.67;;;0.90;;
47599;SDS011;33323;52.124;6.018;2023-05-20T12:06:02;1.52;;;1.10;;
47599;SDS011;33323;52.124;6.018;2023-05-20T12:08:29;4.40;;;1.00;;
47599;SDS011;33323;52.124;6.018;2023-05-20T12:10:57;4.07;;;1.05;;
47599;SDS011;33323;52.124;6.018;2023-05-20T12:13:24;4.70;;;1.02;;
47599;SDS011;33323;52.124;6.018;2023-05-20T12:15:51;4.82;;;1.10;;
47599;SDS011;33323;52.124;6.018;2023-05-20T12:18:18;5.43;;;1.00;;
47599;SDS011;33323;52.124;6.018;2023-05-20T12:20:45;6.05;;;1.60;;
47599;SDS011;33323;52.124;6.018;2023-05-20T12:23:12;4.05;;;0.90;;
47599;SDS011;33323;52.124;6.018;2023-05-20T12:25:39;2.55;;;0.85;;
47599;SDS011;33323;52.124;6.018;2023-05-20T12:28:06;2.30;;;1.52;;
47599;SDS011;33323;52.124;6.018;2023-05-20T12:30:33;1.77;;;1.25;;
47599;SDS011;33323;52.124;6.018;2023-05-20T12:33:01;1.77;;;0.80;;
47599;SDS011;33323;52.124;6.018;2023-05-20T12:35:35;6.55;;;1.05;;
47599;SDS011;33323;52.124;6.018;2023-05-20T12:38:03;2.35;;;0.85;;
47599;SDS011;33323;52.124;6.018;2023-05-20T12:40:31;2.70;;;0.90;;
47599;SDS011;33323;52.124;6.018;2023-05-20T12:42:59;4.53;;;0.90;;
47599;SDS011;33323;52.124;6.018;2023-05-20T12:45:28;3.17;;;1.00;;
47599;SDS011;33323;52.124;6.018;2023-05-20T12:47:55;2.38;;;1.30;;
47599;SDS011;33323;52.124;6.018;2023-05-20T12:50:23;3.45;;;1.10;;
47599;SDS011;33323;52.124;6.018;2023-05-20T12:52:51;7.80;;;1.00;;
47599;SDS011;33323;52.124;6.018;2023-05-20T12:55:18;1.50;;;0.85;;
47599;SDS011;33323;52.124;6.018;2023-05-20T12:57:45;1.80;;;1.00;;
47599;SDS011;33323;52.124;6.018;2023-05-20T13:00:13;1.38;;;0.90;;
47599;SDS011;33323;52.124;6.018;2023-05-20T13:02:41;9.45;;;2.05;;
47599;SDS011;33323;52.124;6.018;2023-05-20T13:05:09;4.13;;;1.20;;
47599;SDS011;33323;52.124;6.018;2023-05-20T13:07:36;1.98;;;0.90;;
47599;SDS011;33323;52.124;6.018;2023-05-20T13:10:05;3.55;;;2.10;;
47599;SDS011;33323;52.124;6.018;2023-05-20T13:12:33;4.60;;;1.30;;
47599;SDS011;33323;52.124;6.018;2023-05-20T13:15:00;7.47;;;1.17;;
47599;SDS011;33323;52.124;6.018;2023-05-20T13:17:27;2.53;;;1.13;;
47599;SDS011;33323;52.124;6.018;2023-05-20T13:19:55;5.20;;;1.88;;
47599;SDS011;33323;52.124;6.018;2023-05-20T13:22:22;2.67;;;1.60;;
47599;SDS011;33323;52.124;6.018;2023-05-20T13:24:49;4.35;;;0.73;;
47599;SDS011;33323;52.124;6.018;2023-05-20T13:27:16;3.33;;;0.93;;
47599;SDS011;33323;52.124;6.018;2023-05-20T13:29:43;6.22;;;1.48;;
47599;SDS011;33323;52.124;6.018;2023-05-20T13:32:10;2.28;;;0.80;;
47599;SDS011;33323;52.124;6.018;2023-05-20T13:34:37;2.95;;;1.17;;
47599;SDS011;33323;52.124;6.018;2023-05-20T13:37:04;3.88;;;0.98;;
47599;SDS011;33323;52.124;6.018;2023-05-20T13:39:32;6.38;;;1.10;;
47599;SDS011;33323;52.124;6.018;2023-05-20T13:41:59;4.53;;;1.25;;
47599;SDS011;33323;52.124;6.018;2023-05-20T13:44:26;4.97;;;1.10;;
47599;SDS011;33323;52.124;6.018;2023-05-20T13:46:54;2.22;;;1.30;;
47599;SDS011;33323;52.124;6.018;2023-05-20T13:49:21;1.92;;;0.90;;
47599;SDS011;33323;52.124;6.018;2023-05-20T13:51:50;3.30;;;1.83;;
47599;SDS011;33323;52.124;6.018;2023-05-20T13:54:17;4.25;;;0.77;;
47599;SDS011;33323;52.124;6.018;2023-05-20T13:56:46;2.60;;;1.02;;
47599;SDS011;33323;52.124;6.018;2023-05-20T13:59:14;4.97;;;0.70;;
47599;SDS011;33323;52.124;6.018;2023-05-20T14:01:41;3.30;;;1.00;;
47599;SDS011;33323;52.124;6.018;2023-05-20T14:04:10;2.53;;;0.90;;
47599;SDS011;33323;52.124;6.018;2023-05-20T14:06:38;2.40;;;1.00;;
47599;SDS011;33323;52.124;6.018;2023-05-20T14:09:06;2.83;;;0.73;;
47599;SDS011;33323;52.124;6.018;2023-05-20T14:11:36;3.08;;;1.20;;
47599;SDS011;33323;52.124;6.018;2023-05-20T14:14:03;2.65;;;0.80;;
47599;SDS011;33323;52.124;6.018;2023-05-20T14:16:30;1.35;;;0.70;;
47599;SDS011;33323;52.124;6.018;2023-05-20T14:18:58;2.35;;;0.90;;
47599;SDS011;33323;52.124;6.018;2023-05-20T14:21:25;2.75;;;0.90;;
47599;SDS011;33323;52.124;6.018;2023-05-20T14:23:52;2.88;;;1.00;;
47599;SDS011;33323;52.124;6.018;2023-05-20T14:26:19;1.92;;;1.20;;
47599;SDS011;33323;52.124;6.018;2023-05-20T14:28:47;3.33;;;1.10;;
47599;SDS011;33323;52.124;6.018;2023-05-20T14:31:14;1.80;;;0.93;;
47599;SDS011;33323;52.124;6.018;2023-05-20T14:33:41;6.13;;;2.00;;
47599;SDS011;33323;52.124;6.018;2023-05-20T14:36:08;1.58;;;0.90;;
47599;SDS011;33323;52.124;6.018;2023-05-20T14:38:36;3.40;;;1.30;;
47599;SDS011;33323;52.124;6.018;2023-05-20T14:41:03;3.55;;;1.00;;
47599;SDS011;33323;52.124;6.018;2023-05-20T14:43:30;3.50;;;0.77;;
47599;SDS011;33323;52.124;6.018;2023-05-20T14:45:57;3.80;;;0.90;;
47599;SDS011;33323;52.124;6.018;2023-05-20T14:48:24;2.33;;;1.00;;
47599;SDS011;33323;52.124;6.018;2023-05-20T14:50:51;5.55;;;2.53;;
47599;SDS011;33323;52.124;6.018;2023-05-20T14:53:18;3.58;;;0.82;;
47599;SDS011;33323;52.124;6.018;2023-05-20T14:55:46;1.48;;;0.80;;
47599;SDS011;33323;52.124;6.018;2023-05-20T14:58:13;2.15;;;0.88;;
47599;SDS011;33323;52.124;6.018;2023-05-20T15:00:40;3.08;;;0.65;;
47599;SDS011;33323;52.124;6.018;2023-05-20T15:03:07;1.38;;;0.70;;
47599;SDS011;33323;52.124;6.018;2023-05-20T15:05:34;4.90;;;0.80;;
47599;SDS011;33323;52.124;6.018;2023-05-20T15:08:01;2.75;;;0.95;;
47599;SDS011;33323;52.124;6.018;2023-05-20T15:10:29;2.42;;;0.90;;
47599;SDS011;33323;52.124;6.018;2023-05-20T15:12:56;3.65;;;0.90;;